CheckWX is a tool to help pilots better visualize weather data.  It is not intended as a substitute for an official pre-flight weather briefing.

14:51:06 UTC

VLLN TAF
Luang Namtha Airport
Luang Namtha, Lao People’s Democratic Republic
TAF VLLN 231100Z 2312/2412 30004KT 5000 FU FEW020 TEMPO 2316/2322 0300 FG VV///

Mar-23@
12:00 UTC

Mar-23 @ 12:00 UTC

Mar-24@
12:00 UTC

Mar-24 @ 12:00 UTC

TAF VLLN 231100Z 2312/2412 30004KT 5000 FU FEW020
Wind
  • 300° at 4 KTS
Conditions
Smoke
Cloud Levels
  • Few at 2,000' AGL

Mar-23@
16:00 UTC

Mar-23 @ 16:00 UTC

Mar-23@
22:00 UTC

Mar-23 @ 22:00 UTC

TEMPO 2316/2322 0300 FG VV///

Temporary

Temporary Changes expected for less than half the time period

Conditions
Fog